Villareales, Texas
Current Conditions -  °F | °C
As of 1:35 AM on Sunday 23 Nov 2014 (Local Time) from KEBG Reporting Station
Scattered Clouds Scattered Clouds  
Wind Chill: 64°   Ceiling: Unl
Heat Index: 64°   Visibility: 7mi
Dew Point: 61°   Wind: 8mph
Humidity: 91%   Direction: 330°NNW
Pressure: 29.79"   Gusts: NA
Location:  26.5735°N, 98.695°W
Report Text: KEBG 230735Z AUTO 33007KT 7SM SCT002 SCT006 18/16 A2979 RMK AO2 P0001 T01770162
Loading
Personal Weather Stations






























Interactive Weather Map New forecast layout! Learn more

10-Day Weather Forecast

Advertisements
Track Severe Weather on mobile